createdAt,value
2018-07-23T00:01:02.263Z,77.50
2018-07-23T00:03:30.406Z,78.30
2018-07-23T00:05:57.914Z,78.00
2018-07-23T00:08:25.652Z,79.00
2018-07-23T00:10:53.284Z,79.00
2018-07-23T00:13:20.949Z,78.90
2018-07-23T00:15:48.512Z,78.50
2018-07-23T00:18:16.085Z,78.10
2018-07-23T00:20:44.062Z,78.80
2018-07-23T00:23:11.697Z,79.00
2018-07-23T00:25:39.436Z,78.30
2018-07-23T00:30:34.403Z,77.90
2018-07-23T00:35:29.419Z,77.80
2018-07-23T00:42:51.908Z,78.60
2018-07-23T00:45:19.480Z,78.10
2018-07-23T00:47:47.713Z,78.00
2018-07-23T00:50:15.390Z,77.90
2018-07-23T00:52:43.590Z,78.60
2018-07-23T00:55:11.250Z,78.60
2018-07-23T00:57:38.903Z,78.60
2018-07-23T01:00:06.618Z,78.40
2018-07-23T01:02:34.240Z,78.10
2018-07-23T01:05:01.829Z,77.60
2018-07-23T01:07:30.012Z,78.10
2018-07-23T01:09:57.554Z,78.40
2018-07-23T01:12:28.762Z,78.50
2018-07-23T01:14:56.370Z,77.60
2018-07-23T01:17:24.169Z,77.70
2018-07-23T01:19:54.182Z,77.70
2018-07-23T01:24:50.369Z,77.50
2018-07-23T01:27:18.023Z,77.80
2018-07-23T01:29:45.561Z,77.80
2018-07-23T01:32:13.122Z,78.70
2018-07-23T01:34:40.754Z,78.10
2018-07-23T01:37:10.297Z,77.70
2018-07-23T01:39:37.825Z,77.30
2018-07-23T01:42:06.123Z,77.40
2018-07-23T01:44:34.575Z,77.90
2018-07-23T01:47:02.061Z,77.10
2018-07-23T01:49:29.661Z,77.10
2018-07-23T01:51:57.283Z,77.80
2018-07-23T01:54:25.324Z,77.60
2018-07-23T01:56:53.834Z,77.10
2018-07-23T01:59:22.048Z,76.80
2018-07-23T02:01:49.590Z,76.70
2018-07-23T02:04:17.173Z,77.30
2018-07-23T02:06:44.717Z,77.00
2018-07-23T02:09:13.033Z,77.50
2018-07-23T02:11:40.824Z,77.60
2018-07-23T02:14:09.389Z,76.50
2018-07-23T02:16:37.011Z,77.00
2018-07-23T02:21:33.505Z,77.50
2018-07-23T02:24:01.638Z,77.80
2018-07-23T02:26:29.173Z,77.70
2018-07-23T02:28:57.548Z,77.70
2018-07-23T02:31:25.644Z,77.30
2018-07-23T02:33:53.221Z,77.20
2018-07-23T02:36:20.829Z,77.00
2018-07-23T02:38:48.660Z,77.10
2018-07-23T02:43:44.800Z,77.10
2018-07-23T02:51:07.729Z,78.20
2018-07-23T02:53:35.281Z,78.10
2018-07-23T02:56:02.857Z,77.30
2018-07-23T03:00:58.620Z,76.40
2018-07-23T03:05:53.780Z,77.50
2018-07-23T03:08:22.173Z,78.20
2018-07-23T03:10:50.060Z,78.00
2018-07-23T03:13:18.710Z,78.20
2018-07-23T03:15:46.260Z,78.80
2018-07-23T03:18:13.792Z,78.90
2018-07-23T03:20:41.309Z,78.20
2018-07-23T03:23:08.843Z,78.20
2018-07-23T03:28:05.219Z,77.80
2018-07-23T03:30:34.212Z,77.80
2018-07-23T03:33:01.752Z,78.00
2018-07-23T03:35:30.549Z,77.70
2018-07-23T03:37:58.322Z,78.30
2018-07-23T03:40:25.989Z,78.50
2018-07-23T03:42:53.522Z,78.60
2018-07-23T03:45:21.408Z,78.10
2018-07-23T03:47:49.701Z,78.20
2018-07-23T03:50:17.392Z,78.10
2018-07-23T03:52:45.118Z,78.60
2018-07-23T03:55:12.648Z,79.20
2018-07-23T03:57:40.166Z,79.30
2018-07-23T04:00:07.673Z,79.40
2018-07-23T04:12:25.275Z,78.30
2018-07-23T04:14:52.755Z,78.30
2018-07-23T04:17:20.288Z,78.90
2018-07-23T04:19:47.882Z,79.50
2018-07-23T04:22:15.638Z,79.70
2018-07-23T04:24:43.348Z,79.10
2018-07-23T04:27:11.678Z,79.20
2018-07-23T04:29:39.210Z,79.30
2018-07-23T04:32:06.843Z,79.30
2018-07-23T04:34:34.403Z,79.20
2018-07-23T04:37:01.884Z,79.10
2018-07-23T04:39:29.420Z,79.50
2018-07-23T04:41:56.984Z,78.70
2018-07-23T04:44:24.629Z,79.20
2018-07-23T04:46:52.822Z,79.00
2018-07-23T04:49:20.425Z,78.30
2018-07-23T04:51:49.145Z,77.70
2018-07-23T04:54:16.935Z,78.00
2018-07-23T04:56:44.498Z,78.00
2018-07-23T04:59:12.162Z,77.60
2018-07-23T05:01:39.711Z,76.90
2018-07-23T05:04:09.466Z,76.60
2018-07-23T05:06:37.055Z,76.10
2018-07-23T05:09:08.578Z,76.40
2018-07-23T05:11:36.167Z,75.60
2018-07-23T05:14:04.466Z,75.40
2018-07-23T05:16:32.122Z,75.30
2018-07-23T05:18:59.596Z,75.80
2018-07-23T05:21:27.195Z,75.30
2018-07-23T05:23:54.903Z,74.90
2018-07-23T05:26:23.129Z,75.80
2018-07-23T05:28:50.690Z,76.30
2018-07-23T05:31:18.437Z,76.00
2018-07-23T05:33:45.994Z,76.60
2018-07-23T05:36:13.595Z,77.20
2018-07-23T05:38:41.597Z,77.10
2018-07-23T05:41:09.328Z,76.80
2018-07-23T05:43:36.961Z,75.70
2018-07-23T05:46:05.227Z,75.20
2018-07-23T05:48:33.790Z,75.80
2018-07-23T05:53:29.419Z,74.30
2018-07-23T05:58:25.398Z,74.00
2018-07-23T06:00:53.275Z,73.20
2018-07-23T06:03:21.009Z,73.60
2018-07-23T06:08:15.985Z,73.80
2018-07-23T06:10:43.508Z,74.30
2018-07-23T06:13:11.105Z,73.40
2018-07-23T06:15:38.762Z,74.00
2018-07-23T06:18:07.240Z,72.50
2018-07-23T06:20:35.554Z,73.10
2018-07-23T06:23:03.143Z,71.70
2018-07-23T06:25:30.782Z,71.80
2018-07-23T06:27:58.367Z,69.70
2018-07-23T06:30:25.954Z,68.60
2018-07-23T06:32:53.567Z,68.60
2018-07-23T06:35:21.087Z,67.80
2018-07-23T06:37:48.726Z,68.40
2018-07-23T06:40:16.407Z,68.00
2018-07-23T06:42:43.877Z,65.80
2018-07-23T06:45:11.481Z,67.70
2018-07-23T06:47:39.445Z,64.50
2018-07-23T06:50:07.314Z,64.00
2018-07-23T06:52:35.525Z,64.00
2018-07-23T06:55:03.554Z,64.10
2018-07-23T06:59:58.531Z,65.60
2018-07-23T07:02:26.175Z,66.30
2018-07-23T07:04:53.828Z,62.80
2018-07-23T07:07:21.290Z,63.90
2018-07-23T07:09:48.880Z,61.80
2018-07-23T07:12:16.664Z,61.80
2018-07-23T07:14:44.140Z,62.50
2018-07-23T07:17:11.855Z,60.60
2018-07-23T07:19:39.415Z,61.40
2018-07-23T07:22:06.939Z,59.20
2018-07-23T07:24:35.137Z,60.30
2018-07-23T07:27:02.676Z,60.90
2018-07-23T07:29:30.281Z,56.40
2018-07-23T07:31:57.921Z,58.20
2018-07-23T07:34:25.486Z,58.80
2018-07-23T07:36:53.118Z,57.50
2018-07-23T07:39:20.768Z,57.20
2018-07-23T07:41:48.262Z,57.00
2018-07-23T07:44:16.111Z,55.90
2018-07-23T07:46:43.896Z,57.10
2018-07-23T07:49:11.546Z,54.50
2018-07-23T07:51:39.149Z,55.50
2018-07-23T07:54:07.619Z,54.80
2018-07-23T07:56:35.790Z,55.30
2018-07-23T07:59:04.135Z,54.30
2018-07-23T08:03:59.715Z,53.60
2018-07-23T08:06:27.254Z,52.50
2018-07-23T08:08:54.860Z,52.20
2018-07-23T08:11:22.543Z,53.50
2018-07-23T08:13:50.232Z,52.20
2018-07-23T08:16:17.902Z,52.40
2018-07-23T08:18:45.637Z,49.50
2018-07-23T08:21:13.371Z,50.20
2018-07-23T08:26:08.970Z,49.70
2018-07-23T08:28:37.384Z,50.30
2018-07-23T08:33:32.471Z,50.30
2018-07-23T08:36:00.201Z,50.00
2018-07-23T08:38:28.965Z,49.20
2018-07-23T08:40:56.554Z,49.80
2018-07-23T08:43:24.640Z,49.80
2018-07-23T08:45:53.044Z,49.70
2018-07-23T08:50:48.699Z,47.40
2018-07-23T08:53:16.513Z,47.50
2018-07-23T08:55:44.683Z,47.00
2018-07-23T08:58:12.425Z,47.40
2018-07-23T09:00:40.631Z,46.80
2018-07-23T09:03:08.328Z,46.00
2018-07-23T09:05:35.923Z,46.50
2018-07-23T09:08:04.319Z,47.10
2018-07-23T09:10:32.518Z,45.90
2018-07-23T09:13:00.093Z,45.80
2018-07-23T09:25:17.824Z,43.80
2018-07-23T09:27:45.442Z,43.70
2018-07-23T09:30:18.731Z,43.90
2018-07-23T09:35:13.827Z,42.80
2018-07-23T09:37:41.560Z,42.30
2018-07-23T09:40:09.247Z,42.50
2018-07-23T09:42:37.496Z,42.80
2018-07-23T09:45:05.701Z,42.60
2018-07-23T09:47:33.308Z,41.90
2018-07-23T09:50:01.247Z,42.60
2018-07-23T09:52:28.922Z,42.00
2018-07-23T09:57:24.590Z,41.70
2018-07-23T09:59:52.253Z,40.70
2018-07-23T10:04:48.086Z,40.20
2018-07-23T10:07:15.844Z,39.60
2018-07-23T10:09:43.657Z,39.20
2018-07-23T10:12:11.276Z,39.20
2018-07-23T10:14:40.028Z,39.80
2018-07-23T10:17:08.741Z,39.10
2018-07-23T10:22:04.532Z,39.10
2018-07-23T10:24:32.908Z,39.80
2018-07-23T10:29:45.117Z,41.00
2018-07-23T10:32:12.998Z,42.20
2018-07-23T10:34:41.111Z,42.60
2018-07-23T10:37:09.475Z,43.50
2018-07-23T10:39:37.143Z,43.40
2018-07-23T10:44:33.244Z,45.20
2018-07-23T10:49:28.691Z,45.60
2018-07-23T10:51:56.396Z,44.90
2018-07-23T10:56:51.573Z,45.40
2018-07-23T10:59:19.280Z,46.90
2018-07-23T11:01:46.863Z,46.80
2018-07-23T11:04:14.397Z,45.00
2018-07-23T11:06:42.135Z,46.90
2018-07-23T11:09:10.422Z,47.50
2018-07-23T11:11:37.953Z,43.50
2018-07-23T11:14:05.482Z,44.10
2018-07-23T11:19:01.445Z,39.20
2018-07-23T11:23:57.586Z,39.40
2018-07-23T11:26:25.358Z,38.80
2018-07-23T11:28:54.467Z,38.50
2018-07-23T11:36:18.017Z,38.30
2018-07-23T11:38:45.576Z,39.20
2018-07-23T11:41:13.971Z,38.00
2018-07-23T11:43:41.480Z,38.30
2018-07-23T11:46:09.017Z,39.70
2018-07-23T11:48:38.060Z,40.30
2018-07-23T11:51:06.549Z,40.80
2018-07-23T11:53:34.372Z,41.80
2018-07-23T11:56:02.840Z,42.90
2018-07-23T11:58:31.240Z,43.10
2018-07-23T12:01:00.541Z,42.30
2018-07-23T12:03:28.122Z,42.20
2018-07-23T12:05:57.320Z,41.00
2018-07-23T12:08:25.739Z,41.00
2018-07-23T12:10:53.420Z,41.30
2018-07-23T12:13:21.632Z,38.50
2018-07-23T12:15:49.147Z,37.80
2018-07-23T12:18:16.665Z,36.80
2018-07-23T12:20:44.475Z,37.00
2018-07-23T12:25:39.429Z,37.00
2018-07-23T12:28:07.134Z,36.60
2018-07-23T12:30:34.665Z,36.40
2018-07-23T12:33:03.673Z,38.50
2018-07-23T12:42:54.143Z,39.00
2018-07-23T12:45:22.510Z,39.00
2018-07-23T12:47:50.594Z,41.30
2018-07-23T12:50:18.149Z,42.00
2018-07-23T12:52:47.557Z,42.50
2018-07-23T13:02:37.480Z,44.00
2018-07-23T13:05:05.189Z,43.10
2018-07-23T13:07:32.917Z,43.20
2018-07-23T13:10:01.198Z,43.40
2018-07-23T13:12:29.471Z,41.80
2018-07-23T13:17:26.128Z,40.20
2018-07-23T13:19:54.117Z,39.70
2018-07-23T13:22:22.161Z,39.20
2018-07-23T13:27:18.181Z,38.10
2018-07-23T13:29:45.779Z,37.90
2018-07-23T13:32:13.370Z,37.60
2018-07-23T13:34:41.108Z,37.70
2018-07-23T13:37:10.254Z,36.50
2018-07-23T13:39:38.582Z,37.00
2018-07-23T13:42:06.208Z,35.90
2018-07-23T13:44:33.743Z,36.00
2018-07-23T13:47:01.598Z,36.60
2018-07-23T13:49:29.247Z,36.50
2018-07-23T13:51:56.961Z,36.70
2018-07-23T13:54:24.501Z,36.70
2018-07-23T13:56:52.718Z,36.00
2018-07-23T13:59:20.362Z,36.20
2018-07-23T14:01:47.857Z,36.70
2018-07-23T14:04:15.426Z,36.50
2018-07-23T14:06:43.081Z,37.90
2018-07-23T14:09:12.418Z,38.60
2018-07-23T14:11:41.014Z,36.60
2018-07-23T14:14:08.613Z,38.50
2018-07-23T14:16:36.396Z,38.30
2018-07-23T14:21:32.039Z,36.90
2018-07-23T14:23:59.572Z,36.60
2018-07-23T14:26:27.305Z,37.30
2018-07-23T14:28:56.203Z,37.90
2018-07-23T14:31:23.857Z,38.60
2018-07-23T14:33:52.010Z,38.80
2018-07-23T14:36:19.681Z,37.10
2018-07-23T14:38:47.341Z,36.60
2018-07-23T14:41:15.003Z,38.40
2018-07-23T14:43:43.433Z,38.90
2018-07-23T14:51:26.200Z,38.30
2018-07-23T14:53:56.625Z,38.10
2018-07-23T14:56:26.111Z,39.30
2018-07-23T14:58:53.689Z,39.70
2018-07-23T15:01:21.854Z,39.80
2018-07-23T15:03:49.371Z,39.60
2018-07-23T15:06:16.965Z,39.80
2018-07-23T15:08:44.675Z,39.80
2018-07-23T15:11:12.736Z,39.80
2018-07-23T15:13:40.299Z,39.80
2018-07-23T15:16:08.714Z,38.50
2018-07-23T15:18:36.847Z,39.50
2018-07-23T15:21:05.438Z,39.70
2018-07-23T15:23:33.657Z,40.30
2018-07-23T15:26:01.317Z,40.60
2018-07-23T15:28:28.875Z,41.50
2018-07-23T15:30:56.789Z,41.00
2018-07-23T15:33:24.396Z,41.30
2018-07-23T15:35:52.010Z,41.60
2018-07-23T15:38:19.831Z,41.40
2018-07-23T15:40:47.652Z,42.50
2018-07-23T15:43:16.689Z,41.80
2018-07-23T15:45:44.620Z,42.30
2018-07-23T15:48:12.490Z,42.10
2018-07-23T15:50:40.653Z,41.50
2018-07-23T15:53:08.964Z,42.10
2018-07-23T15:55:36.587Z,42.20
2018-07-23T15:58:04.449Z,42.20
2018-07-23T16:00:32.672Z,42.30
2018-07-23T16:48:53.079Z,44.80
2018-07-23T16:51:20.834Z,45.40
2018-07-23T16:53:49.032Z,45.20
2018-07-23T16:58:46.394Z,44.50
2018-07-23T17:01:13.944Z,45.30
2018-07-23T17:03:41.501Z,45.40
2018-07-23T17:06:09.359Z,45.30
2018-07-23T17:08:37.836Z,45.30
2018-07-23T17:11:06.725Z,45.90
2018-07-23T17:13:34.916Z,45.70
2018-07-23T17:16:03.647Z,45.80
2018-07-23T17:18:31.276Z,46.00
2018-07-23T17:20:59.537Z,46.60
2018-07-23T17:23:28.508Z,45.50
2018-07-23T17:25:56.743Z,46.20
2018-07-23T17:28:24.645Z,46.40
2018-07-23T17:30:53.778Z,47.10
2018-07-23T17:33:21.516Z,46.00
2018-07-23T17:35:49.287Z,46.20
2018-07-23T17:38:17.448Z,46.70
2018-07-23T17:40:45.369Z,46.60
2018-07-23T17:43:13.609Z,46.30
2018-07-23T17:45:41.826Z,47.20
2018-07-23T17:48:09.836Z,46.60
2018-07-23T17:50:38.102Z,47.10
2018-07-23T17:53:07.065Z,47.20
2018-07-23T17:55:35.034Z,47.90
2018-07-23T17:58:03.330Z,48.70
2018-07-23T18:00:31.545Z,50.60
2018-07-23T18:02:59.177Z,51.10
2018-07-23T18:05:26.750Z,50.90
2018-07-23T18:07:55.127Z,53.90
2018-07-23T18:10:22.825Z,52.00
2018-07-23T18:12:50.480Z,52.70
2018-07-23T18:15:18.059Z,52.60
2018-07-23T18:17:45.732Z,53.10
2018-07-23T18:20:13.492Z,53.20
2018-07-23T18:22:41.111Z,52.90
2018-07-23T18:25:08.801Z,53.20
2018-07-23T18:27:36.336Z,52.80
2018-07-23T18:30:05.669Z,52.50
2018-07-23T18:32:33.393Z,53.40
2018-07-23T18:35:00.967Z,53.50
2018-07-23T18:37:29.454Z,52.90
2018-07-23T18:42:25.173Z,52.10
2018-07-23T18:44:53.853Z,53.50
2018-07-23T18:49:54.539Z,53.10
2018-07-23T18:52:23.914Z,52.20
2018-07-23T18:57:20.880Z,52.60
2018-07-23T18:59:49.607Z,52.30
2018-07-23T19:02:18.755Z,52.40
2018-07-23T19:04:47.540Z,53.10
2018-07-23T19:07:15.294Z,52.80
2018-07-23T19:09:43.081Z,52.50
2018-07-23T19:12:11.296Z,53.10
2018-07-23T19:14:39.358Z,52.80
2018-07-23T19:17:09.436Z,53.60
2018-07-23T19:19:38.053Z,52.10
2018-07-23T19:22:06.751Z,52.60
2018-07-23T19:24:35.783Z,52.20
2018-07-23T19:27:04.062Z,53.20
2018-07-23T19:29:33.856Z,53.70
2018-07-23T19:32:01.432Z,53.50
2018-07-23T19:34:30.278Z,54.60
2018-07-23T19:36:58.484Z,54.00
2018-07-23T19:39:27.067Z,54.70
2018-07-23T19:41:56.245Z,54.60
2018-07-23T19:48:16.012Z,54.40
2018-07-23T19:50:44.349Z,55.40
2018-07-23T19:53:11.980Z,54.80
2018-07-23T19:55:40.215Z,55.50
2018-07-23T19:58:08.179Z,56.00
2018-07-23T20:00:36.965Z,55.40
2018-07-23T20:05:33.848Z,56.70
2018-07-23T20:08:01.570Z,55.30
2018-07-23T20:10:30.550Z,56.50
2018-07-23T20:12:59.246Z,57.20
2018-07-23T20:15:28.138Z,57.00
2018-07-23T20:17:56.592Z,56.70
2018-07-23T20:20:24.286Z,56.70
2018-07-23T20:22:51.896Z,57.80
2018-07-23T20:25:20.173Z,57.80
2018-07-23T20:27:48.593Z,58.40
2018-07-23T20:30:16.549Z,57.70
2018-07-23T20:32:44.741Z,56.70
2018-07-23T20:35:13.944Z,56.80
2018-07-23T20:37:41.584Z,56.90
2018-07-23T20:40:09.328Z,55.80
2018-07-23T20:42:37.014Z,59.00
2018-07-23T20:45:04.686Z,57.60
2018-07-23T20:47:33.476Z,57.60
2018-07-23T20:50:01.010Z,57.70
2018-07-23T20:52:28.590Z,57.70
2018-07-23T20:54:56.208Z,57.60
2018-07-23T20:57:24.007Z,57.60
2018-07-23T20:59:52.312Z,56.80
2018-07-23T21:02:20.658Z,56.50
2018-07-23T21:04:48.810Z,57.00
2018-07-23T21:07:16.542Z,58.40
2018-07-23T21:09:45.983Z,57.80
2018-07-23T21:12:14.806Z,58.90
2018-07-23T21:14:42.433Z,58.40
2018-07-23T21:17:10.137Z,57.20
2018-07-23T21:19:37.854Z,58.70
2018-07-23T21:22:05.678Z,58.30
2018-07-23T21:24:33.336Z,57.30
2018-07-23T21:27:01.154Z,57.40
2018-07-23T21:29:28.787Z,57.00
2018-07-23T21:31:59.790Z,58.90
2018-07-23T21:34:28.957Z,59.00
2018-07-23T21:36:58.302Z,57.10
2018-07-23T21:39:26.351Z,56.10
2018-07-23T21:44:22.088Z,56.30
2018-07-23T21:46:49.772Z,57.90
2018-07-23T21:49:18.028Z,58.20
2018-07-23T21:51:46.267Z,57.10
2018-07-23T21:59:09.190Z,57.60
2018-07-23T22:09:00.975Z,58.50
2018-07-23T22:11:28.549Z,58.80
2018-07-23T22:13:56.600Z,56.90
2018-07-23T22:16:24.240Z,57.50
2018-07-23T22:18:52.652Z,59.30
2018-07-23T22:21:20.181Z,57.70
2018-07-23T22:23:48.368Z,59.60
2018-07-23T22:26:15.931Z,58.50
2018-07-23T22:28:44.416Z,59.20
2018-07-23T22:31:12.313Z,58.10
2018-07-23T22:33:43.785Z,59.10
2018-07-23T22:36:12.341Z,57.70
2018-07-23T22:38:41.033Z,57.50
2018-07-23T22:41:08.752Z,57.60
2018-07-23T22:43:37.243Z,57.50
2018-07-23T22:46:04.928Z,57.80
2018-07-23T22:48:32.652Z,58.00
2018-07-23T22:51:00.983Z,58.10
2018-07-23T22:53:29.442Z,59.20
2018-07-23T22:55:57.580Z,59.70
2018-07-23T22:58:25.803Z,58.90
2018-07-23T23:00:55.523Z,60.60
2018-07-23T23:03:23.694Z,58.70
2018-07-23T23:05:51.424Z,58.30
2018-07-23T23:08:20.736Z,58.80
2018-07-23T23:10:48.469Z,58.30
2018-07-23T23:13:17.373Z,58.20
2018-07-23T23:15:44.980Z,59.20
2018-07-23T23:18:12.561Z,60.20
2018-07-23T23:20:40.265Z,59.70
2018-07-23T23:23:08.492Z,60.60
2018-07-23T23:25:35.998Z,60.30
2018-07-23T23:28:03.562Z,60.60
2018-07-23T23:30:31.209Z,61.50
2018-07-23T23:35:26.197Z,61.50
2018-07-23T23:40:22.366Z,60.30
2018-07-23T23:47:44.712Z,60.30
2018-07-23T23:50:13.073Z,60.30
2018-07-23T23:52:40.595Z,61.30
2018-07-23T23:55:09.422Z,60.20
2018-07-23T23:57:37.044Z,60.20
